Time;durP1;ratioP1;P1;durP2;ratioP2;P2;SDS_P1;SDS_P2;PMS_P1;PMS_P2;Temp;Humidity;BMP_temperature;BMP_pressure;BME280_temperature;BME280_humidity;BME280_pressure;Samples;Min_cycle;Max_cycle;Signal;HPM_P1;HPM_P2
2024/01/03 00:02:46;;;;;;;20.75;13.43;;;;;;;5.02;100.00;99127.75;5609009;31;34056;-74
2024/01/03 00:05:50;;;;;;;18.87;13.95;;;;;;;4.97;100.00;99111.63;5609657;31;34120;-74
2024/01/03 00:08:53;;;;;;;17.65;13.68;;;;;;;5.04;100.00;99109.16;5609880;31;34043;-74
2024/01/03 00:12:00;;;;;;;18.50;12.57;;;;;;;5.09;100.00;99107.69;5608747;31;34076;-74
2024/01/03 00:15:32;;;;;;;20.52;13.02;;;;;;;5.21;100.00;99111.66;5608976;31;34745;-74
2024/01/03 00:18:46;;;;;;;19.20;13.23;;;;;;;5.22;100.00;99110.66;5609273;31;34017;-74
2024/01/03 00:21:50;;;;;;;19.52;13.77;;;;;;;5.12;100.00;99111.81;5608696;31;34055;-74
2024/01/03 00:24:53;;;;;;;18.33;12.95;;;;;;;5.12;100.00;99109.19;5609534;31;34088;-74
2024/01/03 00:27:56;;;;;;;19.10;13.00;;;;;;;5.17;100.00;99105.09;5609460;31;34059;-74
2024/01/03 00:30:59;;;;;;;17.92;13.00;;;;;;;5.08;100.00;99100.78;5608699;31;34305;-74
2024/01/03 00:34:05;;;;;;;18.70;12.75;;;;;;;5.08;100.00;99106.03;5609702;31;34757;-74
2024/01/03 00:37:28;;;;;;;16.83;12.60;;;;;;;5.04;100.00;99110.00;5609577;31;34126;-74
2024/01/03 00:40:31;;;;;;;17.48;12.37;;;;;;;5.05;100.00;99119.53;5609219;31;34147;-74
2024/01/03 00:43:34;;;;;;;17.48;12.55;;;;;;;5.10;100.00;99129.53;5609207;31;34322;-74
2024/01/03 00:46:37;;;;;;;17.60;11.32;;;;;;;5.15;100.00;99132.50;5609648;31;33984;-74
2024/01/03 00:49:40;;;;;;;15.80;10.60;;;;;;;5.18;100.00;99143.50;5609342;31;34209;-74
2024/01/03 00:52:43;;;;;;;15.65;10.68;;;;;;;5.32;100.00;99146.50;5609340;31;34094;-74
2024/01/03 00:55:46;;;;;;;15.35;10.07;;;;;;;5.41;100.00;99148.13;5609247;31;34216;-74
2024/01/03 00:58:49;;;;;;;15.45;10.38;;;;;;;5.49;100.00;99148.13;5609124;31;34330;-74
2024/01/03 01:01:54;;;;;;;15.63;10.68;;;;;;;5.56;100.00;99141.22;5609264;31;34364;-75
2024/01/03 01:04:58;;;;;;;15.27;9.75;;;;;;;5.51;100.00;99133.84;5608809;31;34418;-73
2024/01/03 01:08:03;;;;;;;16.17;10.35;;;;;;;5.45;100.00;99126.59;5595748;31;33904;-74
2024/01/03 01:11:08;;;;;;;13.60;10.07;;;;;;;5.38;100.00;99101.94;5609361;31;34080;-75
2024/01/03 01:14:11;;;;;;;16.85;10.02;;;;;;;5.37;100.00;99104.75;5608308;31;34053;-74
2024/01/03 01:17:18;;;;;;;14.50;9.50;;;;;;;5.34;100.00;99111.13;5609292;31;34016;-74
2024/01/03 01:20:21;;;;;;;13.48;9.45;;;;;;;5.40;100.00;99120.19;5595355;31;34093;-76
2024/01/03 01:23:26;;;;;;;13.93;9.63;;;;;;;5.41;100.00;99132.34;5596202;31;34122;-75
2024/01/03 01:26:36;;;;;;;14.55;9.48;;;;;;;5.38;100.00;99136.12;5608225;31;33898;-75
2024/01/03 01:29:39;;;;;;;14.32;9.88;;;;;;;5.41;100.00;99112.13;5608279;31;34226;-74
2024/01/03 01:32:42;;;;;;;14.13;9.30;;;;;;;5.50;100.00;99111.13;5608245;31;34220;-74
2024/01/03 01:35:45;;;;;;;13.07;9.32;;;;;;;5.52;100.00;99117.03;5608207;31;33971;-74
2024/01/03 01:38:49;;;;;;;20.85;14.25;;;;;;;5.52;100.00;99106.50;5608893;31;34159;-75
2024/01/03 01:41:52;;;;;;;21.15;14.82;;;;;;;5.43;100.00;99094.37;5608264;31;34490;-74
2024/01/03 01:44:56;;;;;;;25.20;15.48;;;;;;;5.33;100.00;99092.88;5608908;31;34145;-75
2024/01/03 01:48:01;;;;;;;19.90;14.98;;;;;;;5.24;100.00;99103.41;5608767;31;34105;-74
2024/01/03 01:51:05;;;;;;;21.65;14.87;;;;;;;5.25;100.00;99093.72;5608836;31;34179;-75
2024/01/03 01:54:12;;;;;;;20.58;14.70;;;;;;;5.13;100.00;99079.28;5607801;31;34753;-73
2024/01/03 01:57:17;;;;;;;22.35;15.13;;;;;;;5.03;100.00;99078.63;5608487;31;34617;-73
2024/01/03 02:00:20;;;;;;;24.92;15.15;;;;;;;5.06;100.00;99081.75;5608347;31;34932;-73
2024/01/03 02:03:24;;;;;;;21.62;13.50;;;;;;;5.05;100.00;99074.00;5608858;31;34864;-73
2024/01/03 02:06:27;;;;;;;19.35;12.55;;;;;;;5.01;100.00;99068.28;5608548;31;34067;-74
2024/01/03 02:09:31;;;;;;;18.48;12.88;;;;;;;5.12;100.00;99075.84;5607612;31;33450;-74
2024/01/03 02:12:33;;;;;;;19.90;13.45;;;;;;;5.19;100.00;99074.19;5608408;31;35639;-74
2024/01/03 02:15:36;;;;;;;18.45;13.10;;;;;;;5.23;100.00;99072.03;5608380;31;34080;-74
2024/01/03 02:18:41;;;;;;;18.17;12.63;;;;;;;5.32;100.00;99060.53;5608218;31;34328;-73
2024/01/03 02:21:44;;;;;;;18.58;11.85;;;;;;;5.38;100.00;99056.41;5608318;31;35447;-74
2024/01/03 02:24:47;;;;;;;17.83;11.63;;;;;;;5.30;100.00;99056.41;5608345;31;34105;-74
2024/01/03 02:27:50;;;;;;;16.10;12.00;;;;;;;5.32;100.00;99057.91;5608137;31;34023;-74
2024/01/03 02:30:53;;;;;;;18.65;11.88;;;;;;;5.31;100.00;99042.28;5608231;31;34243;-74
2024/01/03 02:33:57;;;;;;;16.77;10.88;;;;;;;5.39;100.00;99037.00;5608363;31;34444;-74
2024/01/03 02:37:02;;;;;;;13.98;9.30;;;;;;;5.49;100.00;99048.16;5607377;31;34140;-74
2024/01/03 02:40:06;;;;;;;12.10;7.90;;;;;;;5.47;100.00;99032.53;5608391;31;34712;-75
2024/01/03 02:43:08;;;;;;;13.52;7.60;;;;;;;5.57;100.00;99016.56;5607980;31;34771;-74
2024/01/03 02:46:11;;;;;;;12.98;7.68;;;;;;;5.62;100.00;98999.28;5607909;31;34125;-75
2024/01/03 02:49:14;;;;;;;13.18;8.20;;;;;;;5.72;100.00;99004.34;5607492;31;34342;-76
2024/01/03 02:52:17;;;;;;;13.13;7.72;;;;;;;5.73;100.00;99000.75;5607857;31;34091;-76
2024/01/03 02:55:21;;;;;;;11.23;7.32;;;;;;;5.73;100.00;99006.00;5607813;31;34055;-76
2024/01/03 02:58:24;;;;;;;11.25;7.50;;;;;;;5.76;100.00;98981.97;5607642;31;34158;-76
2024/01/03 03:01:27;;;;;;;13.80;7.50;;;;;;;5.80;100.00;98993.00;5607683;31;34675;-76
2024/01/03 03:04:30;;;;;;;12.55;7.62;;;;;;;5.77;100.00;98991.50;5607551;31;34211;-75
2024/01/03 03:07:32;;;;;;;10.90;7.12;;;;;;;5.86;100.00;98981.75;5607420;31;34039;-75
2024/01/03 03:10:35;;;;;;;13.95;7.57;;;;;;;5.81;100.00;98984.12;5606701;31;35034;-75
2024/01/03 03:13:38;;;;;;;12.90;7.90;;;;;;;5.78;100.00;98987.06;5607545;31;34154;-75
2024/01/03 03:16:41;;;;;;;12.45;7.35;;;;;;;5.81;100.00;98997.28;5607326;31;34029;-75
2024/01/03 03:19:44;;;;;;;12.02;7.40;;;;;;;5.79;100.00;99005.34;5607286;31;34744;-76
2024/01/03 03:22:47;;;;;;;12.75;7.10;;;;;;;5.78;100.00;99030.00;5607288;31;34717;-76
2024/01/03 03:25:50;;;;;;;10.77;6.60;;;;;;;5.78;100.00;99039.69;5607166;31;34674;-76
2024/01/03 03:28:54;;;;;;;11.63;7.35;;;;;;;5.78;100.00;99021.28;5607236;31;34065;-76
2024/01/03 03:31:57;;;;;;;11.07;6.70;;;;;;;5.76;100.00;99020.66;5607266;31;34222;-77
2024/01/03 03:35:00;;;;;;;9.30;6.25;;;;;;;5.76;100.00;99007.50;5607093;31;34378;-76
2024/01/03 03:38:02;;;;;;;11.65;6.57;;;;;;;5.75;100.00;99011.09;5607207;31;34717;-78
2024/01/03 03:41:10;;;;;;;10.40;6.78;;;;;;;5.76;100.00;99013.53;5607342;31;33971;-77
2024/01/03 03:44:13;;;;;;;11.12;7.12;;;;;;;5.79;100.00;99010.59;5607062;31;34115;-78
2024/01/03 03:47:16;;;;;;;10.93;6.22;;;;;;;5.74;100.00;99006.81;5606216;31;34068;-76
2024/01/03 03:50:19;;;;;;;11.30;6.40;;;;;;;5.74;100.00;99007.66;5609910;31;34438;-77
2024/01/03 03:53:22;;;;;;;10.52;6.68;;;;;;;5.74;100.00;99005.03;5609957;31;34088;-77
2024/01/03 03:56:26;;;;;;;9.52;6.32;;;;;;;5.70;100.00;99011.63;5609915;31;34107;-77
2024/01/03 03:59:29;;;;;;;11.05;6.47;;;;;;;5.71;100.00;99015.06;5609758;31;33995;-77
2024/01/03 04:02:32;;;;;;;12.65;6.35;;;;;;;5.71;100.00;99015.91;5609752;31;34215;-77
2024/01/03 04:05:37;;;;;;;10.95;6.20;;;;;;;5.75;100.00;99011.94;5609852;31;34203;-76
2024/01/03 04:08:44;;;;;;;11.15;6.05;;;;;;;5.76;100.00;99018.81;5608752;31;34091;-77
2024/01/03 04:11:47;;;;;;;11.18;5.93;;;;;;;5.76;100.00;99023.28;5609032;31;33969;-77
2024/01/03 04:14:50;;;;;;;10.27;6.10;;;;;;;5.76;100.00;99046.97;5608858;31;34001;-76
2024/01/03 04:17:54;;;;;;;10.77;5.75;;;;;;;5.77;100.00;99052.03;5609455;31;33989;-76
2024/01/03 04:20:57;;;;;;;11.68;6.68;;;;;;;5.76;100.00;99058.28;5609558;31;34853;-76
2024/01/03 04:24:00;;;;;;;10.85;6.40;;;;;;;5.79;100.00;99057.13;5608671;31;35680;-77
2024/01/03 04:27:03;;;;;;;14.65;6.50;;;;;;;5.78;100.00;99047.59;5609422;31;34834;-76
2024/01/03 04:30:06;;;;;;;11.00;6.00;;;;;;;5.80;100.00;99053.53;5609428;31;34100;-76
2024/01/03 04:33:09;;;;;;;8.98;5.70;;;;;;;5.78;100.00;99040.53;5609334;31;34295;-76
2024/01/03 04:36:12;;;;;;;12.05;6.22;;;;;;;5.79;100.00;99039.53;5609185;31;34319;-76
2024/01/03 04:39:16;;;;;;;8.77;5.87;;;;;;;5.78;100.00;99035.25;5609214;31;34013;-75
2024/01/03 04:42:19;;;;;;;10.35;6.45;;;;;;;5.77;100.00;99017.00;5608737;31;34162;-75
2024/01/03 04:45:22;;;;;;;12.63;6.32;;;;;;;5.80;100.00;99022.75;5609186;31;34054;-75
2024/01/03 04:48:25;;;;;;;13.62;6.60;;;;;;;5.82;100.00;99014.69;5609193;31;34268;-75
2024/01/03 04:51:28;;;;;;;9.80;5.85;;;;;;;5.79;100.00;99026.37;5609197;31;34774;-76
2024/01/03 04:54:31;;;;;;;11.95;6.45;;;;;;;5.76;100.00;99015.38;5608478;31;34106;-76
2024/01/03 04:57:35;;;;;;;9.48;6.05;;;;;;;5.80;100.00;99021.94;5608426;31;34216;-76
2024/01/03 05:00:38;;;;;;;10.80;6.18;;;;;;;5.79;100.00;99015.03;5608514;31;34047;-76
2024/01/03 05:03:41;;;;;;;10.07;5.53;;;;;;;5.81;100.00;99002.53;5609256;31;34161;-76
2024/01/03 05:06:45;;;;;;;9.93;5.87;;;;;;;5.82;100.00;98998.88;5609016;31;34295;-76
2024/01/03 05:09:47;;;;;;;12.68;6.28;;;;;;;5.81;100.00;98992.00;5609059;31;34359;-76
2024/01/03 05:12:50;;;;;;;9.95;6.00;;;;;;;5.77;100.00;98996.78;5608914;31;35104;-76
2024/01/03 05:15:53;;;;;;;9.13;5.20;;;;;;;5.78;100.00;99013.38;5609010;31;34058;-76
2024/01/03 05:18:56;;;;;;;11.32;5.50;;;;;;;5.81;100.00;99013.06;5607989;31;34400;-76
2024/01/03 05:21:59;;;;;;;11.55;5.07;;;;;;;5.85;100.00;99028.34;5608844;31;34133;-76
2024/01/03 05:25:03;;;;;;;8.68;4.80;;;;;;;5.84;100.00;99018.81;5608880;31;34199;-77
2024/01/03 05:28:07;;;;;;;9.70;4.28;;;;;;;5.89;100.00;99013.88;5609266;31;35578;-76
2024/01/03 05:31:10;;;;;;;10.95;5.55;;;;;;;5.94;100.00;99011.56;5608195;31;34689;-76
2024/01/03 05:34:15;;;;;;;10.52;5.32;;;;;;;5.95;100.00;98999.22;5608678;31;34009;-77
2024/01/03 05:37:18;;;;;;;12.07;5.22;;;;;;;5.94;100.00;99016.00;5608657;31;34228;-77
2024/01/03 05:40:21;;;;;;;9.45;5.43;;;;;;;5.94;100.00;99019.44;5608639;31;34282;-77
2024/01/03 05:43:24;;;;;;;9.70;5.20;;;;;;;5.91;100.00;99017.13;5608558;31;35132;-75
2024/01/03 05:46:27;;;;;;;8.30;5.43;;;;;;;5.96;100.00;99008.72;5608565;31;34113;-75
2024/01/03 05:49:31;;;;;;;10.98;5.15;;;;;;;5.96;100.00;99019.25;5608813;31;34101;-75
2024/01/03 05:52:36;;;;;;;9.15;4.90;;;;;;;5.97;100.00;99019.09;5608631;31;34225;-75
2024/01/03 05:55:39;;;;;;;6.45;4.72;;;;;;;5.94;100.00;98997.56;5608125;31;34030;-75
2024/01/03 05:58:42;;;;;;;10.30;5.20;;;;;;;5.92;100.00;99010.06;5608362;31;34022;-75
2024/01/03 06:01:46;;;;;;;8.38;4.30;;;;;;;5.96;100.00;99016.63;5608307;31;35171;-75
2024/01/03 06:04:49;;;;;;;9.05;4.55;;;;;;;6.05;100.00;99020.88;5608675;31;34222;-75
2024/01/03 06:07:52;;;;;;;8.07;4.30;;;;;;;6.07;100.00;99029.41;5608097;31;34376;-75
2024/01/03 06:10:55;;;;;;;7.87;4.43;;;;;;;6.08;100.00;99023.16;5607464;31;34768;-75
2024/01/03 06:13:57;;;;;;;7.00;4.53;;;;;;;6.08;100.00;99033.69;5607789;31;34028;-75
2024/01/03 06:17:01;;;;;;;8.35;4.75;;;;;;;6.13;100.00;99036.62;5608253;31;34880;-76
2024/01/03 06:20:04;;;;;;;7.55;3.95;;;;;;;6.22;100.00;99037.41;5608272;31;35120;-76
2024/01/03 06:23:07;;;;;;;6.68;4.03;;;;;;;6.25;100.00;99042.31;5608665;31;35023;-76
2024/01/03 06:26:10;;;;;;;8.90;4.57;;;;;;;6.29;100.00;99041.00;5608237;31;34721;-77
2024/01/03 06:29:15;;;;;;;8.57;4.37;;;;;;;6.31;100.00;99053.00;5608101;31;33984;-76
2024/01/03 06:32:18;;;;;;;9.55;4.90;;;;;;;6.25;100.00;99047.59;5608243;31;34108;-75
2024/01/03 06:35:22;;;;;;;9.60;5.07;;;;;;;6.16;100.00;99035.44;5607872;31;34364;-75
2024/01/03 06:38:25;;;;;;;8.98;4.87;;;;;;;5.95;100.00;99041.31;5607854;31;34270;-75
2024/01/03 06:41:28;;;;;;;9.15;4.43;;;;;;;5.78;100.00;99039.69;5607856;31;34697;-75
2024/01/03 06:44:31;;;;;;;10.70;5.28;;;;;;;5.66;100.00;99044.53;5608055;31;34754;-75
2024/01/03 06:47:34;;;;;;;11.10;5.70;;;;;;;5.62;100.00;99035.31;5608267;31;34689;-76
2024/01/03 06:50:37;;;;;;;7.57;3.53;;;;;;;5.52;100.00;99043.38;5607891;31;34293;-76
2024/01/03 06:53:40;;;;;;;5.72;2.97;;;;;;;5.78;100.00;99044.97;5607946;31;34064;-76
2024/01/03 06:56:43;;;;;;;3.60;2.30;;;;;;;5.94;100.00;99035.25;5606964;31;34102;-76
2024/01/03 06:59:46;;;;;;;5.43;2.67;;;;;;;6.41;100.00;99042.22;5607719;31;34252;-75
2024/01/03 07:02:49;;;;;;;5.68;2.70;;;;;;;6.53;100.00;99049.56;5607474;31;34222;-75
2024/01/03 07:05:52;;;;;;;5.10;2.00;;;;;;;6.57;100.00;99043.97;5607359;31;35176;-75
2024/01/03 07:08:55;;;;;;;4.37;1.98;;;;;;;6.75;100.00;99037.41;5606493;31;34568;-75
2024/01/03 07:11:58;;;;;;;3.50;1.90;;;;;;;6.89;100.00;99036.62;5607104;31;34244;-75
2024/01/03 07:15:01;;;;;;;2.20;1.50;;;;;;;7.10;100.00;99035.97;5607419;31;35119;-74
2024/01/03 07:18:04;;;;;;;3.53;1.50;;;;;;;7.37;100.00;99034.56;5606743;31;34304;-75
2024/01/03 07:21:08;;;;;;;3.35;1.50;;;;;;;7.57;100.00;99043.59;5607072;31;34103;-75
2024/01/03 07:24:12;;;;;;;2.62;1.33;;;;;;;7.80;100.00;99044.31;5608588;31;35028;-75
2024/01/03 07:27:15;;;;;;;2.00;1.30;;;;;;;7.96;100.00;99038.03;5609885;31;34041;-76
2024/01/03 07:30:18;;;;;;;2.00;1.10;;;;;;;8.08;100.00;99044.50;5610222;31;34681;-75
2024/01/03 07:33:21;;;;;;;2.58;1.50;;;;;;;8.15;100.00;99050.66;5609775;31;34096;-75
2024/01/03 07:36:25;;;;;;;5.00;1.40;;;;;;;8.20;100.00;99050.09;5609163;31;33988;-75
2024/01/03 07:39:27;;;;;;;3.03;1.42;;;;;;;8.26;100.00;99044.91;5609609;31;34304;-76
2024/01/03 07:42:31;;;;;;;3.90;1.23;;;;;;;8.35;100.00;99047.47;5610118;31;34788;-76
2024/01/03 07:45:35;;;;;;;3.42;1.48;;;;;;;8.44;100.00;99041.06;5609879;31;34529;-76
2024/01/03 07:48:38;;;;;;;2.58;1.35;;;;;;;8.51;100.00;99034.88;5612505;31;34000;-76
2024/01/03 07:51:41;;;;;;;3.00;1.35;;;;;;;8.68;100.00;99040.72;5609730;31;34108;-76
2024/01/03 07:54:44;;;;;;;2.33;1.27;;;;;;;8.71;100.00;99050.94;5609624;31;34780;-77
2024/01/03 07:57:47;;;;;;;2.30;1.08;;;;;;;8.77;100.00;99042.22;5610194;31;34300;-76
2024/01/03 08:00:50;;;;;;;2.22;1.30;;;;;;;8.86;100.00;99040.28;5609498;31;34741;-76
2024/01/03 08:03:54;;;;;;;2.25;1.20;;;;;;;8.93;100.00;99043.81;5608602;31;34646;-76
2024/01/03 08:07:00;;;;;;;2.17;1.00;;;;;;;8.93;100.00;99041.97;5609669;31;34127;-77
2024/01/03 08:10:03;;;;;;;3.20;1.27;;;;;;;9.00;100.00;99034.13;5609446;31;34982;-75
2024/01/03 08:13:06;;;;;;;1.85;0.98;;;;;;;9.11;100.00;99042.34;5609636;31;33980;-76
2024/01/03 08:16:11;;;;;;;2.20;1.02;;;;;;;9.26;100.00;99050.19;5609711;31;34086;-74
2024/01/03 08:19:13;;;;;;;2.37;1.00;;;;;;;9.26;100.00;99055.50;5609475;31;33998;-75
2024/01/03 08:22:17;;;;;;;2.15;0.90;;;;;;;9.30;100.00;99047.97;5609381;31;34106;-73
2024/01/03 08:25:20;;;;;;;1.55;0.90;;;;;;;9.30;100.00;99054.09;5609505;31;34797;-75
2024/01/03 08:28:23;;;;;;;2.37;1.02;;;;;;;9.36;100.00;99060.44;5609085;31;35051;-75
2024/01/03 08:31:26;;;;;;;1.75;1.00;;;;;;;9.39;100.00;99065.38;5609219;31;34796;-74
2024/01/03 08:34:29;;;;;;;2.83;0.90;;;;;;;9.42;100.00;99067.62;5608301;31;34063;-75
2024/01/03 08:37:32;;;;;;;3.17;1.00;;;;;;;9.47;100.00;99084.56;5609111;31;33632;-75
2024/01/03 08:40:35;;;;;;;3.97;1.20;;;;;;;9.55;100.00;99065.88;5609084;31;34242;-75
2024/01/03 08:43:37;;;;;;;2.80;1.00;;;;;;;9.68;100.00;99083.72;5609324;31;34707;-74
2024/01/03 08:46:41;;;;;;;3.40;1.20;;;;;;;9.75;100.00;99081.09;5609344;31;34865;-74
2024/01/03 08:49:45;;;;;;;4.50;0.98;;;;;;;9.70;100.00;99086.16;5609188;31;34875;-75
2024/01/03 08:52:49;;;;;;;3.17;0.93;;;;;;;9.59;100.00;99088.31;5609408;31;34383;-75
2024/01/03 08:55:51;;;;;;;1.25;0.80;;;;;;;9.67;100.00;99089.19;5609058;31;34096;-72
2024/01/03 08:58:54;;;;;;;2.25;1.00;;;;;;;9.73;100.00;99099.03;5609364;31;34011;-73
2024/01/03 09:01:57;;;;;;;2.00;1.00;;;;;;;9.73;100.00;99089.22;5608181;31;34756;-75
2024/01/03 09:05:00;;;;;;;1.98;1.00;;;;;;;9.67;100.00;99105.91;5609322;31;34839;-74
2024/01/03 09:08:04;;;;;;;1.70;0.90;;;;;;;9.68;100.00;99101.44;5609163;31;34932;-74
2024/01/03 09:11:12;;;;;;;1.87;1.00;;;;;;;9.71;100.00;99108.97;5608223;31;35015;-74
2024/01/03 09:14:16;;;;;;;1.58;0.90;;;;;;;9.72;100.00;99107.97;5608982;31;35024;-75
2024/01/03 09:17:19;;;;;;;2.17;0.90;;;;;;;9.71;100.00;99117.75;5608131;31;35091;-74
2024/01/03 09:20:22;;;;;;;3.00;1.10;;;;;;;9.80;100.00;99111.28;5608698;31;34009;-74
2024/01/03 09:23:27;;;;;;;2.17;1.10;;;;;;;9.82;100.00;99114.56;5608233;31;34026;-74
2024/01/03 09:26:30;;;;;;;2.62;1.17;;;;;;;9.94;100.00;99110.34;5609072;31;34745;-75
2024/01/03 09:29:33;;;;;;;2.95;1.10;;;;;;;9.98;100.00;99113.44;5608262;31;34246;-75
2024/01/03 09:32:36;;;;;;;1.50;1.08;;;;;;;10.10;100.00;99111.06;5608781;31;34038;-75
2024/01/03 09:35:39;;;;;;;1.20;0.90;;;;;;;10.16;100.00;99111.13;5608919;31;34117;-75
2024/01/03 09:38:42;;;;;;;1.62;0.95;;;;;;;10.25;100.00;99119.75;5608554;31;34393;-75
2024/01/03 09:41:47;;;;;;;2.17;1.00;;;;;;;10.25;100.00;99109.13;5607677;31;34650;-75
2024/01/03 09:44:50;;;;;;;1.45;0.98;;;;;;;10.31;100.00;99105.72;5608625;31;34028;-74
2024/01/03 09:47:54;;;;;;;4.28;1.12;;;;;;;10.49;100.00;99115.78;5607625;31;34097;-76
2024/01/03 09:51:01;;;;;;;1.70;1.05;;;;;;;10.59;100.00;99102.97;5607840;31;34649;-75
2024/01/03 09:54:08;;;;;;;3.25;0.90;;;;;;;10.52;100.00;99099.44;5609032;31;33961;-73
2024/01/03 09:57:12;;;;;;;3.03;1.10;;;;;;;10.38;100.00;99090.62;5608237;31;35153;-74
2024/01/03 10:00:16;;;;;;;1.52;1.12;;;;;;;10.31;100.00;99108.34;5608306;31;33527;-74
2024/01/03 10:03:19;;;;;;;1.27;0.95;;;;;;;10.24;100.00;99112.78;5608217;31;34576;-75
2024/01/03 10:06:23;;;;;;;2.42;1.10;;;;;;;10.26;100.00;99126.69;5607973;31;34242;-73
2024/01/03 10:09:45;;;;;;;1.37;1.08;;;;;;;10.33;100.00;99120.38;5607422;31;34014;-74
2024/01/03 10:12:48;;;;;;;2.80;1.05;;;;;;;10.49;100.00;99116.59;5607952;31;34930;-74
2024/01/03 10:15:51;;;;;;;1.75;0.90;;;;;;;10.64;100.00;99113.78;5607502;31;33956;-74
2024/01/03 10:19:17;;;;;;;1.30;0.98;;;;;;;10.83;100.00;99118.34;5608277;31;35066;-74
2024/01/03 10:22:21;;;;;;;1.67;0.90;;;;;;;11.06;100.00;99118.78;5608177;31;34094;-74
2024/01/03 10:25:24;;;;;;;1.87;1.00;;;;;;;11.03;100.00;99121.88;5608203;31;34146;-75
2024/01/03 10:28:28;;;;;;;2.15;1.00;;;;;;;10.96;100.00;99121.00;5607155;31;34619;-73
2024/01/03 10:31:33;;;;;;;2.55;1.20;;;;;;;11.05;100.00;99118.97;5608162;31;34691;-76
2024/01/03 10:34:37;;;;;;;3.83;1.17;;;;;;;11.22;100.00;99114.94;5608341;31;33300;-76
2024/01/03 10:37:41;;;;;;;2.05;0.90;;;;;;;11.23;100.00;99114.72;5607285;31;34115;-74
2024/01/03 10:40:46;;;;;;;1.50;0.90;;;;;;;11.24;100.00;99112.88;5607907;31;34162;-73
2024/01/03 10:43:50;;;;;;;1.55;0.90;;;;;;;11.33;100.00;99117.81;5607898;31;34260;-75
2024/01/03 10:46:55;;;;;;;1.37;0.90;;;;;;;11.39;100.00;99112.69;5606987;31;34838;-75
2024/01/03 10:49:58;;;;;;;1.48;1.10;;;;;;;11.40;100.00;99112.50;5607901;31;34164;-75
2024/01/03 10:53:08;;;;;;;1.87;1.05;;;;;;;11.57;100.00;99097.78;5608072;31;34102;-75
2024/01/03 10:56:15;;;;;;;2.10;1.12;;;;;;;11.80;100.00;99097.41;5609206;31;34088;-75
2024/01/03 10:59:27;;;;;;;1.98;1.27;;;;;;;12.06;100.00;99086.69;5596261;31;34136;-75
2024/01/03 11:02:45;;;;;;;2.95;1.10;;;;;;;12.14;100.00;99086.50;5609447;31;34610;-75
2024/01/03 11:06:03;;;;;;;1.83;1.00;;;;;;;12.18;100.00;99090.34;5610236;31;34170;-73
2024/01/03 11:09:07;;;;;;;1.60;1.00;;;;;;;12.33;100.00;99081.31;5609764;31;34550;-75
2024/01/03 11:12:13;;;;;;;2.30;1.20;;;;;;;12.47;100.00;99077.56;5609269;31;33836;-74
2024/01/03 11:15:23;;;;;;;2.10;1.00;;;;;;;12.57;100.00;99084.06;5609771;31;34347;-75
2024/01/03 11:18:43;;;;;;;2.10;1.20;;;;;;;12.71;100.00;99076.00;5610071;31;34098;-75
2024/01/03 11:21:50;;;;;;;3.00;0.90;;;;;;;12.76;100.00;99082.34;5610195;31;34197;-75
2024/01/03 11:24:53;;;;;;;1.80;1.20;;;;;;;12.76;100.00;99081.50;5609843;31;34233;-74
2024/01/03 11:28:36;;;;;;;4.87;1.10;;;;;;;12.80;100.00;99080.88;5609622;31;33047;-74
2024/01/03 11:31:56;;;;;;;2.90;1.17;;;;;;;12.74;100.00;99086.22;5609550;31;34065;-75
2024/01/03 11:34:59;;;;;;;2.22;1.15;;;;;;;12.62;100.00;99078.13;5609689;31;34750;-74
2024/01/03 11:38:02;;;;;;;2.75;1.12;;;;;;;12.59;100.00;99073.19;5609544;31;34082;-74
2024/01/03 11:41:05;;;;;;;2.37;1.05;;;;;;;12.61;100.00;99063.16;5609582;31;34281;-74
2024/01/03 11:44:20;;;;;;;1.75;1.17;;;;;;;12.61;100.00;99061.31;5608751;31;34387;-74
2024/01/03 11:47:23;;;;;;;1.95;1.10;;;;;;;12.57;100.00;99065.44;5609349;31;35065;-73
2024/01/03 11:50:31;;;;;;;1.75;1.08;;;;;;;12.44;100.00;99062.81;5609695;31;34135;-74
2024/01/03 11:53:37;;;;;;;2.60;1.10;;;;;;;12.55;100.00;99054.19;5608695;31;34067;-75
2024/01/03 11:56:40;;;;;;;2.30;1.10;;;;;;;12.61;100.00;99053.34;5609202;31;34233;-74
2024/01/03 11:59:45;;;;;;;2.35;1.10;;;;;;;12.56;100.00;99049.69;5609372;31;34124;-74
2024/01/03 12:02:56;;;;;;;4.07;1.25;;;;;;;12.54;100.00;99049.88;5595670;31;34688;-75
2024/01/03 12:06:01;;;;;;;3.37;1.40;;;;;;;12.57;100.00;99041.50;5609370;31;34791;-76
2024/01/03 12:09:06;;;;;;;2.47;1.37;;;;;;;12.74;100.00;99046.31;5608813;31;34228;-75
2024/01/03 12:12:09;;;;;;;5.20;1.50;;;;;;;12.84;100.00;99046.66;5609292;31;34840;-75
2024/01/03 12:15:28;;;;;;;4.00;1.80;;;;;;;12.58;100.00;99037.81;5609405;31;34086;-74
2024/01/03 12:18:47;;;;;;;4.47;1.70;;;;;;;12.42;100.00;99042.81;5602799;31;168271;-74
2024/01/03 12:22:01;;;;;;;2.78;1.73;;;;;;;12.24;100.00;99040.03;5609051;31;34247;-75
2024/01/03 12:25:05;;;;;;;5.22;2.00;;;;;;;12.02;100.00;99045.63;5608204;31;35236;-74
2024/01/03 12:28:10;;;;;;;5.12;1.98;;;;;;;11.98;100.00;99049.72;5608424;31;34706;-75
2024/01/03 12:31:17;;;;;;;3.97;2.05;;;;;;;11.84;100.00;99050.78;5609305;31;34154;-73
2024/01/03 12:34:20;;;;;;;4.43;2.00;;;;;;;11.76;100.00;99054.47;5609189;31;34173;-74
2024/01/03 12:37:25;;;;;;;5.18;1.98;;;;;;;11.82;100.00;99044.03;5609150;31;35167;-75
2024/01/03 12:40:28;;;;;;;4.03;1.85;;;;;;;11.85;100.00;99035.66;5582061;31;34077;-75
2024/01/03 12:43:33;;;;;;;9.48;2.30;;;;;;;12.02;100.00;99055.44;5608980;31;34998;-75
2024/01/03 12:46:35;;;;;;;3.65;1.87;;;;;;;12.19;100.00;99044.16;5608948;31;34060;-74
2024/01/03 12:49:41;;;;;;;3.67;1.98;;;;;;;12.22;100.00;99034.91;5607889;31;34547;-75
2024/01/03 12:52:44;;;;;;;3.78;1.58;;;;;;;12.37;100.00;99037.31;5608951;31;34000;-75
2024/01/03 12:55:48;;;;;;;3.28;1.70;;;;;;;12.20;100.00;99036.94;5608768;31;34778;-74
2024/01/03 12:58:55;;;;;;;3.72;1.48;;;;;;;12.39;100.00;99030.72;5608984;31;34082;-74
2024/01/03 13:01:58;;;;;;;3.83;1.67;;;;;;;12.48;100.00;99044.62;5608170;31;34014;-76
2024/01/03 13:05:03;;;;;;;2.85;1.50;;;;;;;12.32;100.00;99050.41;5608706;31;34035;-74
2024/01/03 13:08:12;;;;;;;5.85;1.90;;;;;;;12.24;100.00;99051.47;5608824;31;34128;-73
2024/01/03 13:11:15;;;;;;;3.42;1.87;;;;;;;12.13;100.00;99049.47;5608500;31;34005;-73
2024/01/03 13:14:19;;;;;;;3.75;1.92;;;;;;;12.01;100.00;99054.59;5608509;31;34016;-74
2024/01/03 13:17:25;;;;;;;4.07;1.70;;;;;;;12.02;100.00;99061.56;5608017;31;34243;-74
2024/01/03 13:20:29;;;;;;;5.72;1.90;;;;;;;11.86;100.00;99066.53;5607956;31;34333;-76
2024/01/03 13:23:34;;;;;;;3.62;1.80;;;;;;;11.91;100.00;99077.34;5607842;31;33365;-74
2024/01/03 13:26:37;;;;;;;3.92;1.83;;;;;;;11.82;100.00;99068.75;5607747;31;35060;-74
2024/01/03 13:29:40;;;;;;;3.70;1.92;;;;;;;11.86;100.00;99067.31;5608270;31;34683;-74
2024/01/03 13:32:44;;;;;;;3.30;1.65;;;;;;;11.80;100.00;99075.31;5608414;31;34715;-74
2024/01/03 13:35:47;;;;;;;4.72;1.83;;;;;;;11.87;100.00;99076.94;5608389;31;33974;-74
2024/01/03 13:38:50;;;;;;;5.53;1.60;;;;;;;11.81;100.00;99059.19;5608460;31;33570;-74
2024/01/03 13:41:54;;;;;;;3.15;1.90;;;;;;;11.94;100.00;99061.81;5608290;31;34424;-75
2024/01/03 13:44:59;;;;;;;6.07;2.00;;;;;;;11.91;100.00;99051.56;5608882;31;34052;-74
2024/01/03 13:48:03;;;;;;;3.95;2.10;;;;;;;11.88;100.00;99046.69;5607918;31;34605;-75
2024/01/03 13:51:08;;;;;;;5.82;2.40;;;;;;;11.96;100.00;99057.06;5608224;31;34270;-74
2024/01/03 13:54:11;;;;;;;4.90;2.53;;;;;;;11.74;100.00;99064.50;5608303;31;35071;-74
2024/01/03 13:57:14;;;;;;;7.82;2.60;;;;;;;11.69;100.00;99055.47;5608210;31;34864;-72
2024/01/03 14:00:19;;;;;;;12.30;3.58;;;;;;;11.62;100.00;99046.69;5608305;31;34849;-74
2024/01/03 14:03:23;;;;;;;7.30;4.25;;;;;;;11.52;100.00;99047.13;5608336;31;34057;-73
2024/01/03 14:06:26;;;;;;;6.43;2.95;;;;;;;11.46;100.00;99057.75;5608077;31;34765;-73
2024/01/03 14:09:29;;;;;;;5.85;3.30;;;;;;;11.49;100.00;99054.69;5607753;31;33996;-73
2024/01/03 14:12:32;;;;;;;6.75;3.50;;;;;;;11.57;100.00;99070.44;5607730;31;34344;-74
2024/01/03 14:15:36;;;;;;;7.50;3.60;;;;;;;11.36;100.00;99058.19;5608352;31;34173;-73
2024/01/03 14:18:39;;;;;;;8.50;3.85;;;;;;;11.34;100.00;99063.69;5607197;31;34187;-74
2024/01/03 14:21:49;;;;;;;6.80;3.20;;;;;;;11.18;100.00;99052.66;5607575;31;34662;-74